This is the latest recevied weather packets stored in our database for station/object W1TG-2. If no packets are shown the sender has not sent any weather packets the latest 1 day(s).
| Time | Temp. | Humidity | Pressure | Rain* | Wind** | Luminosity | Snow |
|---|---|---|---|---|---|---|---|
| 1778041084 | 18.33° C | 65% | 1008.3 hPa | 0 mm | - | - | - |
| 1778040724 | 18.33° C | 64% | 1008.1 hPa | 0 mm | - | - | - |
| 1778039644 | 18.89° C | 63% | 1008.1 hPa | 0 mm | - | - | - |
| 1778039284 | 18.89° C | 63% | 1008.1 hPa | 0 mm | - | - | - |
| 1778038564 | 18.89° C | 62% | 1008.1 hPa | 0 mm | - | - | - |
| 1778037483 | 19.44° C | 61% | 1008.1 hPa | 0 mm | - | - | - |
| 1778037124 | 19.44° C | 61% | 1008.1 hPa | 0 mm | - | - | - |
| 1778036044 | 19.44° C | 61% | 1008 hPa | 0 mm | - | - | - |
| 1778035684 | 20° C | 60% | 1007.9 hPa | 0 mm | - | - | - |
| 1778034604 | 20° C | 60% | 1008.1 hPa | 0 mm | - | - | - |
| 1778033883 | 20° C | 59% | 1008 hPa | 0 mm | - | - | - |
| 1778033524 | 20° C | 59% | 1008 hPa | 0 mm | - | - | - |
| 1778032444 | 20.56° C | 58% | 1008 hPa | 0 mm | - | - | - |
| 1778031364 | 20.56° C | 58% | 1008.1 hPa | 0 mm | - | - | - |
| 1778031004 | 20.56° C | 57% | 1008.2 hPa | 0 mm | - | - | - |
| 1778030284 | 21.11° C | 57% | 1007.7 hPa | 0 mm | - | - | - |
| 1778029924 | 21.11° C | 56% | 1007.2 hPa | 0 mm | - | - | - |
| 1778028844 | 21.11° C | 56% | 1006.9 hPa | 0 mm | - | - | - |
| 1778028484 | 21.11° C | 56% | 1006.8 hPa | 0 mm | - | - | - |
| 1778027044 | 21.67° C | 55% | 1006.3 hPa | 0 mm | - | - | - |
| 1778023084 | 23.33° C | 53% | 1005 hPa | 0 mm | - | - | - |
| 1778021644 | 23.89° C | 50% | 1004.6 hPa | 0 mm | - | - | - |
| 1778020204 | 23.33° C | 53% | 1004.3 hPa | 0 mm | - | - | - |
| 1778019124 | 22.78° C | 54% | 1004.1 hPa | 0 mm | - | - | - |
| 1778017684 | 22.22° C | 55% | 1003.8 hPa | 0 mm | - | - | - |
* Rain latest hour (hover to see other rain measurements)
** Current wind speed in m/s (hover to see current wind gust speed)